Time;durP1;ratioP1;P1;durP2;ratioP2;P2;SDS_P1;SDS_P2;PMS_P1;PMS_P2;Temp;Humidity;BMP_temperature;BMP_pressure;BME280_temperature;BME280_humidity;BME280_pressure;Samples;Min_cycle;Max_cycle;Signal;HPM_P1;HPM_P2
2021/03/19 00:00:47;;;;;;;9.60;1.83;;;21.10;89.90;;;;;;5051029;28;20059;-68
2021/03/19 00:03:14;;;;;;;9.40;1.67;;;21.20;89.40;;;;;;5054559;28;20036;-67
2021/03/19 00:05:42;;;;;;;10.50;2.17;;;21.20;89.30;;;;;;5052692;28;20471;-68
2021/03/19 00:08:09;;;;;;;9.52;1.58;;;21.30;87.40;;;;;;5051586;28;20071;-68
2021/03/19 00:10:36;;;;;;;10.05;1.80;;;21.40;88.10;;;;;;5052780;28;20046;-68
2021/03/19 00:13:08;;;;;;;7.32;2.65;;;21.50;87.10;;;;;;5050211;28;21052;-69
2021/03/19 00:15:37;;;;;;;11.07;3.35;;;21.60;87.50;;;;;;5053699;28;20060;-69
2021/03/19 00:18:07;;;;;;;7.82;1.20;;;21.70;86.90;;;;;;5051788;28;20102;-69
2021/03/19 00:20:39;;;;;;;9.55;1.65;;;21.80;86.90;;;;;;5055816;28;20045;-69
2021/03/19 00:23:08;;;;;;;7.45;2.15;;;21.90;86.70;;;;;;5052694;28;20025;-69
2021/03/19 00:25:37;;;;;;;9.52;1.88;;;21.90;86.10;;;;;;5053090;28;20035;-68
2021/03/19 00:28:06;;;;;;;10.48;2.50;;;21.90;85.70;;;;;;5053057;28;20021;-67
2021/03/19 00:30:35;;;;;;;10.68;1.92;;;21.90;86.10;;;;;;5052564;28;20049;-67
2021/03/19 00:33:03;;;;;;;11.93;2.25;;;21.90;86.10;;;;;;5060034;28;20124;-67
2021/03/19 00:35:30;;;;;;;10.25;1.75;;;21.90;86.40;;;;;;5057783;28;20035;-67
2021/03/19 00:37:58;;;;;;;9.63;2.10;;;21.90;86.30;;;;;;5058726;28;20047;-68
2021/03/19 00:40:28;;;;;;;12.68;1.95;;;21.90;86.40;;;;;;5052430;28;20040;-68
2021/03/19 00:42:56;;;;;;;10.32;2.55;;;21.90;87.00;;;;;;5062655;28;20040;-69
2021/03/19 00:45:25;;;;;;;9.30;2.67;;;21.70;88.30;;;;;;5053421;28;20032;-67
2021/03/19 00:47:53;;;;;;;8.57;2.05;;;21.40;89.60;;;;;;5051097;28;20116;-69
2021/03/19 00:50:30;;;;;;;15.15;3.30;;;21.10;90.60;;;;;;5054855;28;20064;-69
2021/03/19 00:52:58;;;;;;;14.05;3.08;;;20.90;90.70;;;;;;5051619;28;21249;-68
2021/03/19 00:55:26;;;;;;;8.70;2.05;;;21.00;90.90;;;;;;5053553;28;20457;-70
2021/03/19 00:57:53;;;;;;;11.70;2.20;;;21.00;91.10;;;;;;5055972;28;20047;-69
2021/03/19 01:00:22;;;;;;;12.38;2.80;;;21.10;90.90;;;;;;5048823;28;20059;-69
2021/03/19 01:02:50;;;;;;;11.13;2.58;;;21.20;90.70;;;;;;5055268;28;20357;-69
2021/03/19 01:05:24;;;;;;;12.27;3.65;;;21.20;90.50;;;;;;5048654;28;20047;-70
2021/03/19 01:07:53;;;;;;;9.55;2.72;;;21.20;90.80;;;;;;5051690;28;20448;-69
2021/03/19 01:10:30;;;;;;;15.98;2.85;;;21.30;90.30;;;;;;5059678;28;20024;-68
2021/03/19 01:12:58;;;;;;;13.13;2.72;;;21.40;90.10;;;;;;5055784;28;20391;-69
2021/03/19 01:15:27;;;;;;;9.77;2.65;;;21.70;89.90;;;;;;5049751;28;20063;-68
2021/03/19 01:17:55;;;;;;;10.43;2.58;;;22.00;89.70;;;;;;5052641;28;20484;-69
2021/03/19 01:20:25;;;;;;;12.30;2.63;;;22.30;87.80;;;;;;5050021;28;20029;-68
2021/03/19 01:22:53;;;;;;;10.65;2.22;;;22.50;86.80;;;;;;5049162;28;20487;-71
2021/03/19 01:25:22;;;;;;;10.13;2.08;;;22.80;86.20;;;;;;5050516;28;20021;-69
2021/03/19 01:27:49;;;;;;;8.20;1.42;;;22.90;85.30;;;;;;5054035;28;20028;-70
2021/03/19 01:30:20;;;;;;;9.95;1.83;;;22.80;84.50;;;;;;5049880;28;20515;-70
2021/03/19 01:32:48;;;;;;;10.02;1.83;;;22.90;85.10;;;;;;5051128;28;20429;-70
2021/03/19 01:35:19;;;;;;;17.90;3.33;;;22.90;84.40;;;;;;5048900;28;20506;-69
2021/03/19 01:37:46;;;;;;;12.45;2.72;;;22.90;84.30;;;;;;5053895;28;20040;-69
2021/03/19 01:40:16;;;;;;;15.50;2.40;;;22.90;84.40;;;;;;5049895;28;20017;-69
2021/03/19 01:42:57;;;;;;;9.02;2.63;;;23.00;83.90;;;;;;5050436;28;20036;-69
2021/03/19 01:46:00;;;;;;;15.82;3.15;;;23.10;84.40;;;;;;5048540;28;20037;-69
2021/03/19 01:49:04;;;;;;;9.48;1.70;;;23.20;83.10;;;;;;5050694;28;20025;-70
2021/03/19 01:52:08;;;;;;;12.82;1.92;;;23.30;82.00;;;;;;5051152;28;20024;-69
2021/03/19 01:55:12;;;;;;;9.30;2.55;;;23.50;80.50;;;;;;5053203;28;20112;-70
2021/03/19 01:58:15;;;;;;;11.63;1.70;;;23.60;79.40;;;;;;5052207;28;20035;-68
2021/03/19 02:01:19;;;;;;;10.30;2.15;;;23.60;78.10;;;;;;5049518;28;20064;-68
2021/03/19 02:04:23;;;;;;;13.95;3.22;;;23.50;77.20;;;;;;5054806;28;20090;-69
2021/03/19 02:07:27;;;;;;;11.05;2.80;;;23.50;78.50;;;;;;5050364;28;20091;-68
2021/03/19 02:10:30;;;;;;;10.20;2.67;;;23.60;78.00;;;;;;5057255;28;20059;-69
2021/03/19 02:13:34;;;;;;;13.35;2.30;;;23.70;77.60;;;;;;5055611;28;20032;-69
2021/03/19 02:16:38;;;;;;;7.38;1.77;;;23.80;75.90;;;;;;5054758;28;20025;-68
2021/03/19 02:19:41;;;;;;;9.52;1.98;;;23.80;74.90;;;;;;5055746;28;20155;-69
2021/03/19 02:22:45;;;;;;;10.20;1.67;;;23.80;75.30;;;;;;5063466;28;20020;-69
2021/03/19 02:25:49;;;;;;;12.65;1.90;;;23.80;74.90;;;;;;5050255;28;20029;-71
2021/03/19 02:28:54;;;;;;;9.13;1.55;;;23.90;75.60;;;;;;5049953;28;20024;-69
2021/03/19 02:32:05;;;;;;;15.45;3.20;;;24.00;75.50;;;;;;5050898;28;20068;-68
2021/03/19 02:34:48;;;;;;;14.63;2.63;;;23.90;75.30;;;;;;5011611;28;20357;-69
2021/03/19 02:37:19;;;;;;;12.55;2.45;;;23.90;75.90;;;;;;5056203;28;20040;-70
2021/03/19 02:39:47;;;;;;;13.00;2.65;;;23.90;76.50;;;;;;5051609;28;20029;-68
2021/03/19 02:42:22;;;;;;;8.52;2.22;;;23.90;75.50;;;;;;5059173;28;20028;-69
2021/03/19 02:44:50;;;;;;;13.07;2.80;;;23.80;74.60;;;;;;5043551;28;20025;-70
2021/03/19 02:47:18;;;;;;;14.13;3.67;;;24.00;75.00;;;;;;5055712;28;20508;-67
2021/03/19 02:49:46;;;;;;;6.93;1.30;;;24.10;74.20;;;;;;5057476;28;20063;-68
2021/03/19 02:52:15;;;;;;;13.93;2.47;;;24.20;73.40;;;;;;5054547;28;20039;-67
2021/03/19 02:54:42;;;;;;;10.20;1.95;;;24.40;72.90;;;;;;5050446;28;20048;-67
2021/03/19 02:57:09;;;;;;;9.45;2.08;;;24.40;71.70;;;;;;5055842;28;20123;-67
2021/03/19 02:59:37;;;;;;;12.63;2.85;;;24.50;71.90;;;;;;5051959;28;20017;-68
2021/03/19 03:02:04;;;;;;;11.50;1.70;;;24.80;71.70;;;;;;5056124;28;20034;-69
2021/03/19 03:04:31;;;;;;;12.15;1.98;;;25.10;70.70;;;;;;5042741;28;20435;-69
2021/03/19 03:06:59;;;;;;;10.70;2.05;;;25.00;71.50;;;;;;5054818;28;20530;-68
2021/03/19 03:09:33;;;;;;;15.18;1.75;;;24.80;71.40;;;;;;5052349;28;20859;-68
2021/03/19 03:12:03;;;;;;;12.55;2.42;;;24.40;72.40;;;;;;5053647;28;20506;-69
2021/03/19 03:14:32;;;;;;;17.77;4.55;;;24.00;75.80;;;;;;5058277;28;20021;-72
2021/03/19 03:17:04;;;;;;;8.60;2.22;;;23.40;82.70;;;;;;5052919;28;20040;-70
2021/03/19 03:19:32;;;;;;;12.88;2.60;;;22.80;83.70;;;;;;5055657;28;20188;-70
2021/03/19 03:21:59;;;;;;;10.18;2.40;;;22.60;84.50;;;;;;5049879;28;20096;-73
2021/03/19 03:24:28;;;;;;;9.93;2.25;;;22.70;85.40;;;;;;5056385;28;20558;-70
2021/03/19 03:26:55;;;;;;;9.70;2.05;;;22.80;86.00;;;;;;5059507;28;20533;-70
2021/03/19 03:29:24;;;;;;;11.73;2.33;;;23.00;86.50;;;;;;5052534;28;20083;-70
2021/03/19 03:31:53;;;;;;;9.35;2.00;;;23.10;84.80;;;;;;5055239;28;20537;-69
2021/03/19 03:34:21;;;;;;;10.82;2.42;;;23.20;84.70;;;;;;5053014;28;20036;-70
2021/03/19 03:36:50;;;;;;;14.43;1.92;;;23.20;83.40;;;;;;5053737;28;20497;-70
2021/03/19 03:39:23;;;;;;;10.45;1.48;;;23.30;83.50;;;;;;5052640;28;20410;-69
2021/03/19 03:41:52;;;;;;;15.73;2.25;;;23.30;82.70;;;;;;5052347;28;20144;-71
2021/03/19 03:44:20;;;;;;;11.80;1.92;;;23.20;80.10;;;;;;5054524;28;20033;-71
2021/03/19 03:46:48;;;;;;;8.73;2.00;;;23.20;79.90;;;;;;5052757;28;20099;-72
2021/03/19 03:49:18;;;;;;;15.00;1.90;;;23.20;79.40;;;;;;5053959;28;20473;-71
2021/03/19 03:51:46;;;;;;;11.65;2.05;;;23.20;79.20;;;;;;5051149;28;20036;-68
2021/03/19 03:54:14;;;;;;;14.38;2.38;;;23.30;79.20;;;;;;5052954;28;20345;-70
2021/03/19 03:56:42;;;;;;;9.55;1.77;;;23.30;79.30;;;;;;5049643;28;20037;-70
2021/03/19 03:59:10;;;;;;;7.47;2.17;;;23.40;79.40;;;;;;5053264;28;20029;-68
2021/03/19 04:01:42;;;;;;;19.38;2.58;;;23.40;79.10;;;;;;5061284;28;20480;-69
2021/03/19 04:04:17;;;;;;;13.68;2.17;;;23.30;79.70;;;;;;5063868;28;20025;-68
2021/03/19 04:06:44;;;;;;;7.15;1.60;;;23.30;80.50;;;;;;5051147;28;20035;-68
2021/03/19 04:09:11;;;;;;;5.63;1.25;;;22.90;81.00;;;;;;5051330;28;20036;-68
2021/03/19 04:11:39;;;;;;;3.47;1.02;;;22.40;83.80;;;;;;5054373;28;20526;-69
2021/03/19 04:14:07;;;;;;;4.38;0.77;;;21.90;86.10;;;;;;5053757;28;20056;-69
2021/03/19 04:16:34;;;;;;;5.00;0.93;;;21.50;87.80;;;;;;5054040;28;20638;-69
2021/03/19 04:19:02;;;;;;;7.25;1.55;;;21.20;89.70;;;;;;5052592;28;20031;-69
2021/03/19 04:21:30;;;;;;;7.25;1.92;;;21.00;90.30;;;;;;5051963;28;20061;-69
2021/03/19 04:23:57;;;;;;;6.03;0.90;;;20.90;90.60;;;;;;5051035;28;20033;-69
2021/03/19 04:26:34;;;;;;;7.22;1.02;;;21.00;90.80;;;;;;5037565;28;20978;-71
2021/03/19 04:29:03;;;;;;;9.40;1.50;;;21.00;90.50;;;;;;5052573;28;20040;-70
2021/03/19 04:31:31;;;;;;;5.22;1.20;;;21.10;90.70;;;;;;5051276;28;20118;-69
2021/03/19 04:33:58;;;;;;;7.05;1.30;;;21.20;90.30;;;;;;5045346;28;20039;-69
2021/03/19 04:36:39;;;;;;;8.45;1.95;;;21.40;90.10;;;;;;5053222;28;20029;-70
2021/03/19 04:39:10;;;;;;;8.55;1.67;;;21.50;89.70;;;;;;5051957;28;20484;-68
2021/03/19 04:41:37;;;;;;;9.98;1.95;;;21.40;89.20;;;;;;5055887;28;20034;-71
2021/03/19 04:44:06;;;;;;;9.70;1.50;;;21.30;89.00;;;;;;5049700;28;20473;-68
2021/03/19 04:46:34;;;;;;;10.68;1.77;;;21.40;89.20;;;;;;5045865;28;20120;-68
2021/03/19 04:49:02;;;;;;;7.95;1.98;;;21.50;89.10;;;;;;5034547;28;20028;-68
2021/03/19 04:51:29;;;;;;;12.98;1.38;;;21.60;89.10;;;;;;5051814;28;20017;-67
2021/03/19 04:53:57;;;;;;;11.20;2.95;;;21.60;88.50;;;;;;5055167;28;20056;-68
2021/03/19 04:56:25;;;;;;;9.85;1.80;;;21.70;88.60;;;;;;5066866;28;20565;-68
2021/03/19 04:58:53;;;;;;;15.40;1.65;;;21.80;87.30;;;;;;5056871;28;20084;-68
2021/03/19 05:01:21;;;;;;;9.98;2.10;;;21.90;88.40;;;;;;5051618;28;20065;-69
2021/03/19 05:03:49;;;;;;;6.63;1.38;;;21.80;88.60;;;;;;5055226;28;20087;-70
2021/03/19 05:06:18;;;;;;;13.55;1.52;;;21.70;87.70;;;;;;5053750;28;20029;-69
2021/03/19 05:08:45;;;;;;;12.95;2.67;;;21.70;88.00;;;;;;5048450;28;20040;-69
2021/03/19 05:11:15;;;;;;;8.93;1.50;;;21.70;88.50;;;;;;5035727;28;20044;-68
2021/03/19 05:13:44;;;;;;;7.15;1.33;;;21.70;88.10;;;;;;5032701;28;20028;-69
2021/03/19 05:16:12;;;;;;;9.18;1.80;;;21.80;89.10;;;;;;5055601;28;20030;-70
2021/03/19 05:18:39;;;;;;;7.47;1.67;;;22.00;89.10;;;;;;5055541;28;20510;-76
2021/03/19 05:21:07;;;;;;;7.78;1.60;;;22.10;88.80;;;;;;5050212;28;20024;-74
2021/03/19 05:23:36;;;;;;;6.75;1.50;;;22.20;89.50;;;;;;5037785;28;20032;-73
2021/03/19 05:26:06;;;;;;;10.68;1.73;;;22.30;90.00;;;;;;5054404;28;20418;-71
2021/03/19 05:28:34;;;;;;;8.27;2.15;;;22.30;88.90;;;;;;5053454;28;20033;-72
2021/03/19 05:31:02;;;;;;;10.25;2.67;;;22.30;89.40;;;;;;5056401;28;20028;-74
2021/03/19 05:33:42;;;;;;;8.32;1.98;;;22.30;89.10;;;;;;5056919;28;20025;-73
2021/03/19 05:36:10;;;;;;;4.60;1.63;;;22.30;88.90;;;;;;5050821;28;20644;-73
2021/03/19 05:38:38;;;;;;;7.18;2.17;;;22.30;88.80;;;;;;5061256;28;20487;-75
2021/03/19 05:41:06;;;;;;;6.75;1.38;;;22.40;88.10;;;;;;5052681;28;20115;-73
2021/03/19 05:43:44;;;;;;;9.15;1.90;;;22.30;88.70;;;;;;5057031;28;20484;-74
2021/03/19 05:46:16;;;;;;;11.10;2.47;;;22.30;89.60;;;;;;5058262;28;20486;-76
2021/03/19 05:48:49;;;;;;;9.50;2.13;;;22.30;88.90;;;;;;5061183;28;20036;-74
2021/03/19 05:51:44;;;;;;;9.38;2.05;;;22.40;88.30;;;;;;5054944;28;20024;-74
2021/03/19 05:54:12;;;;;;;6.95;1.33;;;22.30;88.50;;;;;;5048332;28;20646;-71
2021/03/19 05:56:40;;;;;;;9.43;1.63;;;22.20;87.00;;;;;;5050228;28;20040;-78
2021/03/19 05:59:07;;;;;;;13.35;2.92;;;22.10;87.80;;;;;;5045682;28;20028;-70
2021/03/19 06:01:37;;;;;;;13.27;2.33;;;21.90;88.90;;;;;;5050927;28;20031;-72
2021/03/19 06:04:05;;;;;;;12.80;3.08;;;21.80;89.10;;;;;;5052602;28;20379;-72
2021/03/19 06:07:04;;;;;;;16.40;3.17;;;21.60;89.80;;;;;;5054059;28;20084;-71
2021/03/19 06:09:41;;;;;;;19.00;3.83;;;21.50;90.20;;;;;;5048106;28;20024;-70
2021/03/19 06:12:15;;;;;;;9.63;1.70;;;21.40;90.10;;;;;;5051631;28;20530;-73
2021/03/19 06:14:51;;;;;;;7.90;2.05;;;21.50;90.10;;;;;;5051816;28;20119;-76
2021/03/19 06:17:43;;;;;;;15.10;2.67;;;21.50;89.90;;;;;;5051263;28;20451;-70
2021/03/19 06:20:15;;;;;;;16.50;2.28;;;21.50;90.10;;;;;;5049654;28;20579;-75
2021/03/19 06:22:48;;;;;;;11.20;2.15;;;21.60;89.50;;;;;;5031777;28;20629;-70
2021/03/19 06:25:23;;;;;;;7.68;2.30;;;21.60;89.30;;;;;;5053367;28;20108;-70
2021/03/19 06:27:59;;;;;;;13.02;2.13;;;21.60;89.30;;;;;;5048150;28;20111;-75
2021/03/19 06:30:37;;;;;;;10.77;1.92;;;21.70;89.10;;;;;;5050543;28;20084;-72
2021/03/19 06:33:13;;;;;;;10.07;2.08;;;21.60;89.10;;;;;;5057084;28;20040;-72
2021/03/19 06:35:45;;;;;;;15.48;2.40;;;21.60;89.30;;;;;;5052512;28;20028;-72
2021/03/19 06:38:36;;;;;;;9.60;2.42;;;21.70;89.10;;;;;;5056104;28;20506;-74
2021/03/19 06:41:22;;;;;;;18.05;2.80;;;21.60;90.00;;;;;;5057038;28;20044;-74
2021/03/19 06:43:50;;;;;;;10.80;3.20;;;21.70;89.40;;;;;;5056964;28;20112;-72
2021/03/19 06:46:41;;;;;;;14.73;2.80;;;21.80;89.60;;;;;;5057235;28;20548;-74
2021/03/19 06:49:09;;;;;;;13.20;2.70;;;21.90;89.30;;;;;;5054885;28;20461;-73
2021/03/19 06:51:41;;;;;;;13.18;2.03;;;21.90;89.00;;;;;;5053762;28;20040;-75
2021/03/19 06:54:16;;;;;;;12.35;2.97;;;22.00;87.70;;;;;;5059134;28;20024;-77
2021/03/19 06:57:04;;;;;;;14.65;2.40;;;22.00;88.10;;;;;;5055221;28;20515;-75
2021/03/19 06:59:40;;;;;;;16.55;3.17;;;22.00;87.90;;;;;;5034240;28;20029;-74
2021/03/19 07:02:39;;;;;;;9.93;2.33;;;22.00;88.20;;;;;;5059714;28;20352;-71
2021/03/19 07:05:14;;;;;;;12.35;2.70;;;22.00;88.10;;;;;;5057614;28;20032;-72
2021/03/19 07:07:47;;;;;;;12.13;2.93;;;22.00;88.10;;;;;;5059560;28;20023;-71
2021/03/19 07:10:38;;;;;;;18.10;3.63;;;22.00;87.70;;;;;;5054617;28;20029;-73
2021/03/19 07:13:23;;;;;;;8.82;2.08;;;22.00;87.70;;;;;;5036839;28;20413;-73
2021/03/19 07:16:24;;;;;;;17.88;3.28;;;22.00;87.70;;;;;;5053203;28;20560;-75
2021/03/19 07:19:13;;;;;;;11.18;2.97;;;22.00;88.20;;;;;;5039249;28;20048;-71
2021/03/19 07:21:57;;;;;;;15.73;2.90;;;21.80;88.20;;;;;;5052105;28;20045;-77
2021/03/19 07:24:52;;;;;;;14.65;2.95;;;21.80;88.20;;;;;;5060130;28;20055;-72
2021/03/19 07:27:25;;;;;;;12.27;2.40;;;21.80;89.20;;;;;;5055737;28;20376;-75
2021/03/19 07:30:13;;;;;;;10.68;2.78;;;21.70;88.40;;;;;;5054421;28;20028;-74
2021/03/19 07:32:47;;;;;;;13.27;3.17;;;21.70;88.70;;;;;;5075141;28;20119;-75
2021/03/19 07:35:34;;;;;;;11.02;3.03;;;21.60;89.30;;;;;;5078240;28;20030;-75
2021/03/19 07:38:37;;;;;;;16.00;3.72;;;21.60;89.50;;;;;;5078335;28;20167;-73
2021/03/19 07:41:45;;;;;;;15.43;3.00;;;21.50;89.50;;;;;;5069422;28;20262;-72
2021/03/19 07:44:31;;;;;;;9.45;2.88;;;21.60;89.20;;;;;;5064338;28;20028;-76
2021/03/19 07:47:08;;;;;;;8.77;2.10;;;21.50;87.80;;;;;;5079576;28;20035;-73
2021/03/19 07:49:56;;;;;;;12.38;2.13;;;21.50;87.00;;;;;;5069146;28;20284;-75
2021/03/19 07:52:58;;;;;;;13.00;3.05;;;21.50;87.00;;;;;;5076684;28;20550;-75
2021/03/19 07:55:55;;;;;;;10.60;2.40;;;21.40;86.70;;;;;;5086533;28;20051;-75
2021/03/19 07:58:34;;;;;;;;;;;21.40;86.50;;;;;;5077219;28;20486;-71
2021/03/19 08:01:45;;;;;;;13.63;1.80;;;21.40;86.60;;;;;;5073934;28;19919;-73
2021/03/19 08:04:44;;;;;;;16.38;1.80;;;21.30;87.20;;;;;;5076230;28;20122;-70
2021/03/19 08:07:43;;;;;;;15.65;2.55;;;21.30;87.60;;;;;;5074420;28;20032;-74
2021/03/19 08:10:32;;;;;;;6.75;1.65;;;21.30;87.20;;;;;;5041160;28;20071;-73
2021/03/19 08:13:20;;;;;;;11.20;2.00;;;21.30;87.10;;;;;;5079677;28;20348;-73
2021/03/19 08:15:55;;;;;;;13.55;2.10;;;21.30;87.10;;;;;;5075921;28;20050;-73
2021/03/19 08:18:49;;;;;;;8.13;1.92;;;21.30;87.20;;;;;;5072047;28;20032;-74
2021/03/19 08:21:54;;;;;;;11.40;3.10;;;21.20;87.30;;;;;;5074679;28;20035;-76
2021/03/19 08:24:37;;;;;;;14.13;2.75;;;21.30;86.80;;;;;;5057230;28;20123;-72
2021/03/19 08:27:15;;;;;;;15.05;2.83;;;21.30;87.20;;;;;;5072994;28;20099;-73
2021/03/19 08:29:46;;;;;;;7.75;1.40;;;21.30;88.00;;;;;;5066934;28;20049;-71
2021/03/19 08:32:24;;;;;;;8.82;2.42;;;21.20;88.30;;;;;;5033340;28;20021;-73
2021/03/19 08:35:09;;;;;;;11.45;1.95;;;21.10;89.60;;;;;;5052013;28;20020;-72
2021/03/19 08:38:00;;;;;;;10.98;2.58;;;21.00;90.10;;;;;;5053231;28;20453;-73
2021/03/19 08:41:00;;;;;;;10.52;2.65;;;20.90;90.20;;;;;;5054525;28;20031;-72
2021/03/19 08:43:36;;;;;;;10.98;2.08;;;20.90;90.60;;;;;;5040294;28;20032;-71
2021/03/19 08:46:24;;;;;;;11.93;2.20;;;20.80;90.90;;;;;;5051503;28;20037;-73
2021/03/19 08:48:57;;;;;;;12.70;1.60;;;20.70;90.90;;;;;;5053012;28;20029;-72
2021/03/19 08:51:30;;;;;;;15.82;2.92;;;20.70;91.20;;;;;;5053102;28;20101;-72
2021/03/19 08:54:26;;;;;;;10.82;2.22;;;20.70;91.50;;;;;;5056063;28;20024;-70
2021/03/19 08:57:15;;;;;;;9.75;1.98;;;20.60;91.40;;;;;;5054633;28;20583;-71
2021/03/19 08:59:42;;;;;;;12.13;2.03;;;20.60;91.30;;;;;;5052150;28;20032;-71
2021/03/19 09:02:25;;;;;;;7.75;1.55;;;20.60;91.50;;;;;;5053867;28;20059;-71
2021/03/19 09:04:58;;;;;;;14.98;2.20;;;20.60;91.60;;;;;;5054124;28;20384;-74
2021/03/19 09:07:33;;;;;;;17.27;2.70;;;20.50;91.70;;;;;;5052607;28;20032;-71
2021/03/19 09:10:18;;;;;;;14.82;3.03;;;20.60;91.70;;;;;;5056174;28;20207;-73
2021/03/19 09:13:09;;;;;;;10.27;3.03;;;20.50;92.30;;;;;;5052875;28;20531;-73
2021/03/19 09:15:49;;;;;;;12.48;3.15;;;20.30;92.50;;;;;;5023963;28;20037;-75
2021/03/19 09:18:34;;;;;;;10.65;2.50;;;20.20;92.90;;;;;;5057139;28;20037;-70
2021/03/19 09:21:12;;;;;;;11.68;2.30;;;20.20;92.70;;;;;;5051847;28;20025;-73
2021/03/19 09:24:04;;;;;;;21.95;3.72;;;20.20;92.70;;;;;;5050340;28;20028;-71
2021/03/19 09:26:42;;;;;;;9.43;2.28;;;20.10;92.80;;;;;;5051421;28;20032;-72
2021/03/19 09:29:16;;;;;;;14.35;2.28;;;20.10;92.90;;;;;;5051002;28;20554;-73
2021/03/19 09:31:51;;;;;;;10.70;2.17;;;20.00;93.30;;;;;;5049122;28;20059;-71
2021/03/19 09:34:45;;;;;;;8.55;2.08;;;20.00;93.30;;;;;;5047843;28;20025;-72
2021/03/19 09:37:37;;;;;;;12.75;3.22;;;20.00;93.40;;;;;;5032463;28;20558;-74
2021/03/19 09:40:43;;;;;;;15.15;2.53;;;19.90;93.40;;;;;;5054046;28;20032;-72
2021/03/19 09:43:35;;;;;;;15.98;2.50;;;19.80;93.70;;;;;;5049637;28;20036;-71
2021/03/19 09:46:13;;;;;;;11.43;3.00;;;19.80;93.80;;;;;;5038115;28;20068;-75
2021/03/19 09:48:55;;;;;;;8.55;1.80;;;19.90;94.00;;;;;;5048869;28;20131;-75
2021/03/19 09:58:22;;;;;;;11.23;2.65;;;19.80;94.30;;;;;;5052031;28;20103;-76
2021/03/19 10:00:59;;;;;;;8.75;1.98;;;19.70;94.40;;;;;;5049574;28;20585;-77
2021/03/19 10:03:26;;;;;;;13.65;2.50;;;19.70;94.40;;;;;;5055773;28;20032;-73
2021/03/19 10:05:54;;;;;;;12.80;2.08;;;19.70;94.50;;;;;;5050706;28;20041;-75
2021/03/19 10:08:35;;;;;;;16.10;2.40;;;19.60;94.40;;;;;;5057009;28;20183;-74
2021/03/19 10:11:14;;;;;;;7.28;1.67;;;19.60;94.40;;;;;;5060173;28;20374;-77
2021/03/19 10:13:42;;;;;;;10.93;2.63;;;19.60;94.50;;;;;;5039063;28;20029;-77
2021/03/19 10:23:11;;;;;;;11.77;2.22;;;19.60;94.20;;;;;;5060879;28;20393;-74
2021/03/19 10:25:44;;;;;;;17.80;2.38;;;19.60;94.00;;;;;;5057960;28;20035;-74
2021/03/19 10:28:16;;;;;;;10.95;2.75;;;19.60;93.90;;;;;;5063380;28;20069;-73
2021/03/19 10:31:16;;;;;;;12.98;2.08;;;19.60;93.70;;;;;;5057010;28;20049;-74
2021/03/19 10:33:49;;;;;;;8.48;1.83;;;19.60;93.70;;;;;;5057176;28;20044;-75
2021/03/19 10:36:20;;;;;;;12.40;2.40;;;19.60;93.90;;;;;;5062799;28;20056;-73
2021/03/19 10:39:03;;;;;;;12.40;2.97;;;19.60;93.90;;;;;;5062347;28;20411;-71
2021/03/19 10:41:40;;;;;;;7.93;1.55;;;19.60;94.10;;;;;;5056940;28;20070;-71
2021/03/19 10:44:33;;;;;;;12.63;1.42;;;19.50;94.20;;;;;;5051513;28;20040;-76
2021/03/19 10:47:09;;;;;;;8.52;1.30;;;19.50;94.30;;;;;;5053644;28;20025;-75
2021/03/19 10:50:10;;;;;;;12.43;2.03;;;19.50;94.30;;;;;;5055610;28;20020;-73
2021/03/19 10:52:48;;;;;;;11.35;1.70;;;19.40;94.20;;;;;;5006433;28;20119;-73
2021/03/19 10:55:31;;;;;;;9.02;2.15;;;19.40;94.20;;;;;;5052079;28;20078;-73
2021/03/19 10:58:22;;;;;;;11.10;2.67;;;19.40;94.40;;;;;;5058608;28;20074;-75
2021/03/19 11:00:51;;;;;;;10.52;2.00;;;19.50;94.30;;;;;;5052239;28;20096;-73
2021/03/19 11:03:45;;;;;;;6.18;1.40;;;19.50;94.30;;;;;;5054057;28;20398;-74
2021/03/19 11:06:31;;;;;;;12.63;2.65;;;19.40;94.30;;;;;;5056249;28;20532;-72
2021/03/19 11:09:25;;;;;;;8.27;1.65;;;19.50;94.40;;;;;;5057523;28;20028;-77
2021/03/19 11:12:19;;;;;;;11.23;2.05;;;19.40;94.30;;;;;;5053365;28;20028;-73
2021/03/19 11:15:01;;;;;;;12.10;1.48;;;19.40;94.40;;;;;;5059745;28;20024;-74
2021/03/19 11:17:28;;;;;;;10.55;1.73;;;19.40;94.40;;;;;;5067656;28;20075;-74
2021/03/19 11:20:10;;;;;;;9.25;2.50;;;19.40;94.40;;;;;;5053278;28;20036;-74
2021/03/19 11:22:42;;;;;;;7.25;1.58;;;19.40;94.40;;;;;;5054389;28;20064;-73
2021/03/19 11:25:41;;;;;;;12.45;2.55;;;19.50;94.30;;;;;;5054763;28;20502;-72
2021/03/19 11:28:43;;;;;;;12.65;3.10;;;19.50;94.10;;;;;;5059606;28;20571;-74
2021/03/19 11:31:29;;;;;;;8.85;1.63;;;19.50;93.90;;;;;;5059550;28;20395;-74
2021/03/19 11:34:17;;;;;;;10.43;1.23;;;19.40;93.90;;;;;;5059079;28;20036;-72
2021/03/19 11:36:56;;;;;;;11.00;2.67;;;19.40;94.00;;;;;;5060038;28;20063;-72
2021/03/19 11:39:55;;;;;;;6.18;1.55;;;19.40;94.20;;;;;;5059986;28;20099;-73
2021/03/19 11:42:26;;;;;;;12.13;2.80;;;19.30;94.20;;;;;;5060472;28;20021;-75
2021/03/19 11:44:58;;;;;;;16.08;2.17;;;19.30;94.30;;;;;;5057403;28;20078;-74
2021/03/19 11:47:27;;;;;;;7.57;1.55;;;19.30;94.40;;;;;;5058721;28;20024;-74
2021/03/19 11:50:17;;;;;;;9.20;1.58;;;19.30;94.50;;;;;;5056335;28;20025;-72
2021/03/19 11:52:47;;;;;;;10.07;1.55;;;19.30;94.70;;;;;;5064050;28;20036;-75
2021/03/19 11:55:22;;;;;;;13.50;2.22;;;19.30;94.70;;;;;;5052874;28;20040;-74
2021/03/19 11:57:50;;;;;;;11.25;1.42;;;19.20;94.80;;;;;;5051855;28;20029;-75
2021/03/19 12:00:21;;;;;;;10.25;2.13;;;19.20;95.10;;;;;;5058563;28;20037;-75
2021/03/19 12:02:50;;;;;;;12.38;2.38;;;19.20;95.10;;;;;;5056626;28;20135;-75
2021/03/19 12:05:20;;;;;;;9.90;2.35;;;19.20;95.20;;;;;;5060842;28;20411;-74
2021/03/19 12:07:48;;;;;;;11.10;2.28;;;19.10;95.30;;;;;;5048566;28;20021;-74
2021/03/19 12:10:19;;;;;;;6.38;1.50;;;19.20;95.30;;;;;;5058244;28;20405;-74
2021/03/19 12:12:46;;;;;;;7.85;1.65;;;19.20;95.40;;;;;;5054953;28;20085;-72
2021/03/19 12:15:17;;;;;;;13.10;2.78;;;19.20;95.50;;;;;;5056230;28;20036;-75
2021/03/19 12:17:46;;;;;;;9.80;2.75;;;19.10;95.50;;;;;;5054863;28;20487;-74
2021/03/19 12:20:14;;;;;;;16.05;3.13;;;19.10;95.50;;;;;;5056928;28;20032;-76
2021/03/19 12:22:41;;;;;;;15.45;3.65;;;19.10;95.70;;;;;;5056288;28;20025;-76
2021/03/19 12:25:25;;;;;;;9.40;2.08;;;19.10;95.70;;;;;;5057216;28;20028;-73
2021/03/19 12:27:52;;;;;;;10.52;1.88;;;19.10;95.70;;;;;;5059122;28;20036;-76
2021/03/19 12:30:21;;;;;;;13.60;2.05;;;19.10;95.70;;;;;;5054768;28;20183;-74
2021/03/19 12:32:50;;;;;;;8.52;2.00;;;19.10;95.60;;;;;;5053013;28;20078;-76
2021/03/19 12:35:18;;;;;;;13.93;3.30;;;19.10;95.70;;;;;;5054173;28;20352;-74
2021/03/19 12:37:46;;;;;;;20.67;2.55;;;19.10;95.80;;;;;;5055198;28;20037;-74
2021/03/19 12:40:15;;;;;;;15.25;2.13;;;19.10;95.70;;;;;;5046929;28;20020;-71
2021/03/19 12:42:59;;;;;;;6.63;1.38;;;19.10;95.70;;;;;;5058565;28;20029;-72
2021/03/19 12:45:31;;;;;;;8.45;2.22;;;19.10;95.70;;;;;;5034336;28;20032;-73
2021/03/19 12:47:59;;;;;;;9.98;1.92;;;19.10;95.60;;;;;;5060271;28;20040;-71
2021/03/19 12:50:28;;;;;;;14.48;2.30;;;19.10;95.70;;;;;;5059397;28;20106;-71
2021/03/19 12:56:18;;;;;;;9.95;2.03;;;19.10;95.60;;;;;;5057218;28;20023;-71
2021/03/19 12:58:46;;;;;;;10.50;1.60;;;19.20;95.50;;;;;;5055837;28;20124;-71
2021/03/19 13:01:19;;;;;;;15.80;2.45;;;19.20;94.70;;;;;;5056692;28;20059;-73
2021/03/19 13:03:51;;;;;;;14.57;2.63;;;19.30;94.60;;;;;;5062357;28;20032;-70
2021/03/19 13:06:21;;;;;;;19.13;2.95;;;19.30;94.20;;;;;;5059536;28;20024;-72
2021/03/19 13:08:51;;;;;;;18.70;3.03;;;19.40;94.10;;;;;;5055015;28;20088;-71
2021/03/19 13:11:20;;;;;;;17.67;2.13;;;19.40;93.50;;;;;;5032928;28;20476;-69
2021/03/19 13:14:09;;;;;;;11.77;2.00;;;19.40;93.40;;;;;;5055386;28;20025;-71
2021/03/19 13:16:37;;;;;;;7.03;2.05;;;19.40;93.40;;;;;;5055433;28;20052;-71
2021/03/19 13:19:06;;;;;;;11.32;1.90;;;19.40;93.20;;;;;;5067167;28;20056;-70
2021/03/19 13:21:35;;;;;;;14.88;2.70;;;19.40;93.30;;;;;;5060535;28;20032;-70
2021/03/19 13:24:03;;;;;;;13.07;2.47;;;19.30;93.60;;;;;;5056927;28;20112;-69
2021/03/19 13:26:32;;;;;;;8.95;2.17;;;19.30;94.20;;;;;;5055275;28;20021;-71
2021/03/19 13:28:59;;;;;;;10.55;1.50;;;19.30;93.90;;;;;;5067136;28;20033;-73
2021/03/19 13:31:27;;;;;;;12.23;2.10;;;19.20;94.20;;;;;;5053264;28;20106;-70
2021/03/19 13:33:54;;;;;;;19.05;2.45;;;19.30;94.40;;;;;;5040203;28;20490;-71
2021/03/19 13:36:21;;;;;;;9.63;2.40;;;19.20;94.40;;;;;;5048913;28;20089;-68
2021/03/19 13:38:49;;;;;;;11.02;2.42;;;19.20;94.40;;;;;;5056466;28;20037;-70
2021/03/19 13:41:16;;;;;;;12.27;3.17;;;19.20;94.50;;;;;;5056386;28;20017;-69
2021/03/19 13:43:45;;;;;;;17.17;2.83;;;19.20;94.50;;;;;;5058456;28;20035;-69
2021/03/19 13:46:14;;;;;;;23.63;3.67;;;19.20;94.50;;;;;;5054079;28;20020;-69